createdAt,value
2023-03-14T00:00:01.166Z,10.19
2023-03-14T00:02:28.652Z,10.21
2023-03-14T00:04:57.201Z,10.21
2023-03-14T00:07:25.577Z,10.22
2023-03-14T00:09:52.464Z,10.27
2023-03-14T00:12:18.922Z,10.28
2023-03-14T00:14:45.343Z,10.28
2023-03-14T00:17:12.351Z,10.30
2023-03-14T00:19:38.800Z,10.26
2023-03-14T00:22:05.276Z,10.27
2023-03-14T00:24:31.713Z,10.26
2023-03-14T00:26:58.413Z,10.29
2023-03-14T00:29:24.880Z,10.25
2023-03-14T00:31:51.306Z,10.29
2023-03-14T00:34:17.749Z,10.24
2023-03-14T00:36:45.600Z,10.24
2023-03-14T00:39:13.141Z,10.20
2023-03-14T00:41:39.580Z,10.19
2023-03-14T00:44:06.011Z,10.25
2023-03-14T00:46:32.641Z,10.25
2023-03-14T00:48:59.147Z,10.26
2023-03-14T00:51:25.706Z,10.26
2023-03-14T00:53:52.156Z,10.25
2023-03-14T00:56:18.628Z,10.26
2023-03-14T00:58:45.112Z,10.22
2023-03-14T01:01:17.803Z,10.19
2023-03-14T01:03:45.409Z,10.20
2023-03-14T01:06:14.905Z,10.15
2023-03-14T01:08:43.113Z,10.19
2023-03-14T01:11:13.610Z,10.20
2023-03-14T01:13:40.173Z,10.18
2023-03-14T01:16:09.615Z,10.19
2023-03-14T01:18:38.140Z,10.21
2023-03-14T01:21:10.233Z,10.25
2023-03-14T01:23:36.998Z,10.28
2023-03-14T01:26:10.337Z,10.28
2023-03-14T01:28:37.668Z,10.22
2023-03-14T01:31:09.822Z,10.26
2023-03-14T01:33:36.707Z,10.23
2023-03-14T01:36:04.154Z,10.32
2023-03-14T01:38:31.609Z,10.28
2023-03-14T01:40:59.852Z,10.29
2023-03-14T01:43:32.967Z,10.27
2023-03-14T01:46:05.993Z,10.34
2023-03-14T01:48:45.497Z,10.28
2023-03-14T01:51:19.306Z,10.24
2023-03-14T01:53:52.305Z,10.27
2023-03-14T01:56:19.800Z,10.16
2023-03-14T01:58:49.080Z,10.17
2023-03-14T02:01:18.095Z,10.16
2023-03-14T02:03:49.393Z,10.05
2023-03-14T02:06:18.809Z,10.12
2023-03-14T02:08:49.620Z,10.15
2023-03-14T02:11:20.539Z,10.17
2023-03-14T02:13:55.781Z,10.17
2023-03-14T02:16:33.603Z,10.20
2023-03-14T02:19:30.107Z,10.24
2023-03-14T02:22:10.458Z,10.22
2023-03-14T02:24:55.435Z,10.19
2023-03-14T02:27:21.960Z,10.14
2023-03-14T02:29:53.233Z,10.19
2023-03-14T02:32:21.728Z,10.22
2023-03-14T02:34:51.658Z,10.22
2023-03-14T02:37:20.254Z,10.19
2023-03-14T02:39:48.858Z,10.25
2023-03-14T02:42:16.742Z,10.21
2023-03-14T02:45:22.067Z,10.23
2023-03-14T02:47:56.197Z,10.25
2023-03-14T02:50:26.231Z,10.25
2023-03-14T02:52:54.315Z,10.23
2023-03-14T02:55:25.023Z,10.19
2023-03-14T02:57:54.083Z,10.18
2023-03-14T03:00:20.983Z,10.17
2023-03-14T03:02:47.752Z,10.20
2023-03-14T03:05:15.563Z,10.18
2023-03-14T03:07:42.085Z,10.18
2023-03-14T03:10:10.008Z,10.15
2023-03-14T03:12:37.227Z,10.08
2023-03-14T03:15:05.601Z,10.04
2023-03-14T03:17:35.131Z,10.00
2023-03-14T03:20:01.614Z,9.99
2023-03-14T03:22:28.079Z,9.98
2023-03-14T03:24:54.478Z,9.95
2023-03-14T03:27:20.909Z,9.90
2023-03-14T03:29:48.376Z,9.95
2023-03-14T03:32:14.803Z,9.93
2023-03-14T03:34:41.246Z,9.91
2023-03-14T03:37:08.022Z,9.90
2023-03-14T03:39:39.582Z,9.90
2023-03-14T03:42:06.226Z,9.89
2023-03-14T03:44:32.941Z,9.87
2023-03-14T03:46:59.536Z,9.83
2023-03-14T03:49:30.420Z,9.79
2023-03-14T03:51:57.396Z,9.77
2023-03-14T03:54:24.112Z,9.81
2023-03-14T03:56:50.623Z,9.80
2023-03-14T03:59:17.042Z,9.81
2023-03-14T04:01:46.025Z,9.78
2023-03-14T04:04:12.535Z,9.76
2023-03-14T04:06:39.347Z,9.78
2023-03-14T04:09:06.024Z,9.81
2023-03-14T04:11:43.662Z,9.82
2023-03-14T04:14:22.137Z,9.86
2023-03-14T04:16:55.709Z,9.88
2023-03-14T04:19:22.361Z,9.92
2023-03-14T04:21:50.408Z,9.91
2023-03-14T04:24:17.803Z,9.94
2023-03-14T04:26:47.876Z,9.96
2023-03-14T04:29:15.164Z,10.02
2023-03-14T04:31:44.602Z,10.04
2023-03-14T04:34:11.192Z,10.08
2023-03-14T04:36:43.388Z,10.10
2023-03-14T04:39:15.026Z,10.10
2023-03-14T04:41:48.921Z,10.08
2023-03-14T04:44:15.595Z,10.09
2023-03-14T04:46:42.243Z,10.10
2023-03-14T04:49:10.802Z,10.10
2023-03-14T04:51:37.971Z,10.12
2023-03-14T04:54:04.544Z,10.08
2023-03-14T04:56:31.194Z,10.05
2023-03-14T04:58:58.354Z,10.06
2023-03-14T05:01:25.634Z,10.06
2023-03-14T05:04:02.211Z,10.06
2023-03-14T05:06:47.799Z,10.08
2023-03-14T05:09:27.146Z,10.12
2023-03-14T05:12:12.228Z,10.08
2023-03-14T05:14:51.416Z,10.09
2023-03-14T05:17:34.069Z,10.07
2023-03-14T05:20:15.167Z,10.05
2023-03-14T05:23:00.009Z,10.05
2023-03-14T05:25:45.538Z,10.03
2023-03-14T05:28:23.883Z,10.03
2023-03-14T05:30:56.265Z,10.00
2023-03-14T05:33:44.706Z,10.03
2023-03-14T05:36:29.610Z,10.02
2023-03-14T05:39:04.482Z,10.03
2023-03-14T05:41:48.774Z,10.00
2023-03-14T05:44:44.523Z,10.02
2023-03-14T05:47:18.152Z,10.01
2023-03-14T05:49:56.272Z,9.94
2023-03-14T05:52:37.055Z,9.92
2023-03-14T05:55:12.148Z,9.92
2023-03-14T05:57:50.414Z,9.95
2023-03-14T06:00:23.889Z,9.90
2023-03-14T06:03:06.744Z,9.95
2023-03-14T06:05:41.510Z,9.93
2023-03-14T06:08:08.035Z,9.93
2023-03-14T06:10:36.643Z,9.91
2023-03-14T06:13:03.389Z,9.92
2023-03-14T06:15:33.905Z,9.96
2023-03-14T06:18:00.337Z,9.97
2023-03-14T06:20:27.538Z,9.99
2023-03-14T06:22:54.608Z,9.98
2023-03-14T06:25:21.212Z,9.99
2023-03-14T06:27:48.775Z,10.00
2023-03-14T06:30:16.497Z,10.04
2023-03-14T06:32:43.557Z,10.02
2023-03-14T06:35:13.067Z,10.04
2023-03-14T06:37:42.748Z,10.03
2023-03-14T06:40:11.280Z,9.96
2023-03-14T06:42:56.496Z,9.85
2023-03-14T06:45:24.879Z,9.75
2023-03-14T06:47:52.682Z,9.71
2023-03-14T06:50:23.801Z,9.70
2023-03-14T06:52:50.852Z,9.70
2023-03-14T06:55:22.811Z,9.63
2023-03-14T06:57:49.883Z,9.64
2023-03-14T07:00:17.106Z,9.65
2023-03-14T07:02:43.781Z,9.67
2023-03-14T07:05:22.235Z,9.72
2023-03-14T07:07:49.062Z,9.72
2023-03-14T07:10:17.082Z,9.72
2023-03-14T07:12:43.587Z,9.76
2023-03-14T07:15:18.286Z,9.82
2023-03-14T07:17:48.946Z,9.86
2023-03-14T07:20:15.942Z,9.90
2023-03-14T07:22:42.692Z,9.94
2023-03-14T07:25:12.639Z,9.95
2023-03-14T07:27:39.338Z,9.96
2023-03-14T07:30:06.683Z,9.98
2023-03-14T07:32:33.241Z,9.98
2023-03-14T07:34:59.790Z,10.00
2023-03-14T07:37:26.466Z,10.02
2023-03-14T07:39:52.919Z,10.05
2023-03-14T07:42:23.473Z,10.05
2023-03-14T07:45:12.421Z,10.09
2023-03-14T07:47:39.011Z,10.11
2023-03-14T07:50:06.223Z,10.12
2023-03-14T07:52:32.708Z,10.19
2023-03-14T07:54:59.115Z,10.22
2023-03-14T07:57:25.860Z,10.22
2023-03-14T07:59:52.361Z,10.25
2023-03-14T08:02:21.208Z,10.26
2023-03-14T08:04:47.660Z,10.26
2023-03-14T08:07:14.131Z,10.29
2023-03-14T08:09:40.549Z,10.28
2023-03-14T08:12:07.311Z,10.31
2023-03-14T08:14:33.756Z,10.32
2023-03-14T08:17:00.242Z,10.33
2023-03-14T08:19:26.793Z,10.37
2023-03-14T08:21:53.708Z,10.41
2023-03-14T08:24:20.172Z,10.39
2023-03-14T08:26:46.587Z,10.44
2023-03-14T08:29:13.740Z,10.46
2023-03-14T08:31:40.214Z,10.47
2023-03-14T08:34:07.599Z,10.49
2023-03-14T08:36:34.499Z,10.58
2023-03-14T08:39:01.015Z,10.62
2023-03-14T08:41:27.528Z,10.70
2023-03-14T08:43:54.007Z,10.78
2023-03-14T08:46:20.533Z,10.87
2023-03-14T08:48:46.989Z,10.88
2023-03-14T08:51:14.869Z,10.93
2023-03-14T08:53:41.859Z,10.94
2023-03-14T08:56:10.801Z,10.96
2023-03-14T08:58:38.876Z,10.94
2023-03-14T09:01:06.754Z,10.92
2023-03-14T09:03:33.205Z,10.92
2023-03-14T09:06:04.580Z,10.91
2023-03-14T09:08:31.019Z,10.95
2023-03-14T09:10:57.633Z,10.99
2023-03-14T09:13:24.066Z,11.05
2023-03-14T09:15:57.434Z,11.07
2023-03-14T09:18:23.882Z,11.06
2023-03-14T09:20:50.703Z,11.04
2023-03-14T09:23:17.132Z,11.05
2023-03-14T09:25:43.563Z,11.10
2023-03-14T09:28:09.986Z,11.15
2023-03-14T09:30:36.382Z,11.19
2023-03-14T09:33:02.965Z,11.18
2023-03-14T09:35:29.499Z,11.15
2023-03-14T09:37:55.929Z,11.16
2023-03-14T09:40:24.498Z,11.15
2023-03-14T09:42:55.126Z,11.11
2023-03-14T09:45:37.386Z,11.09
2023-03-14T09:48:05.144Z,11.05
2023-03-14T09:50:38.698Z,11.06
2023-03-14T09:53:14.221Z,11.01
2023-03-14T09:55:40.870Z,11.04
2023-03-14T09:58:13.121Z,10.99
2023-03-14T10:00:39.648Z,10.99
2023-03-14T10:03:21.189Z,10.98
2023-03-14T10:05:47.744Z,10.95
2023-03-14T10:08:14.215Z,10.93
2023-03-14T10:10:41.198Z,10.89
2023-03-14T10:13:10.675Z,10.90
2023-03-14T10:15:38.026Z,10.88
2023-03-14T10:18:05.302Z,10.87
2023-03-14T10:20:36.878Z,10.85
2023-03-14T10:23:05.718Z,10.90
2023-03-14T10:25:37.024Z,10.91
2023-03-14T10:28:05.003Z,10.90
2023-03-14T10:30:45.144Z,10.90
2023-03-14T10:33:19.201Z,10.86
2023-03-14T10:35:46.752Z,10.83
2023-03-14T10:38:16.367Z,10.81
2023-03-14T10:40:50.200Z,10.87
2023-03-14T10:43:20.831Z,10.87
2023-03-14T10:45:53.593Z,10.89
2023-03-14T10:48:25.958Z,10.87
2023-03-14T10:51:06.198Z,10.86
2023-03-14T10:54:03.505Z,10.86
2023-03-14T10:56:37.469Z,10.80
2023-03-14T10:59:07.519Z,10.79
2023-03-14T11:01:55.781Z,10.70
2023-03-14T11:04:40.912Z,10.70
2023-03-14T11:07:28.683Z,10.66
2023-03-14T11:10:02.010Z,10.59
2023-03-14T11:12:31.377Z,10.56
2023-03-14T11:15:13.594Z,10.57
2023-03-14T11:17:50.862Z,10.49
2023-03-14T11:21:05.328Z,10.45
2023-03-14T11:23:48.734Z,10.41
2023-03-14T11:26:26.302Z,10.40
2023-03-14T11:28:58.978Z,10.38
2023-03-14T11:31:34.889Z,10.30
2023-03-14T11:34:36.617Z,10.29
2023-03-14T11:37:13.089Z,10.27
2023-03-14T11:39:41.866Z,10.26
2023-03-14T11:42:13.755Z,10.26
2023-03-14T11:44:41.260Z,10.26
2023-03-14T11:47:12.915Z,10.25
2023-03-14T11:49:45.274Z,10.23
2023-03-14T11:52:20.150Z,10.26
2023-03-14T11:54:53.880Z,10.26
2023-03-14T11:57:22.026Z,10.29
2023-03-14T12:00:15.180Z,10.23
2023-03-14T12:02:44.576Z,10.20
2023-03-14T12:05:35.567Z,10.18
2023-03-14T12:08:08.166Z,10.16
2023-03-14T12:10:41.966Z,10.11
2023-03-14T12:13:11.636Z,10.07
2023-03-14T12:15:48.718Z,9.97
2023-03-14T12:18:27.473Z,9.94
2023-03-14T12:21:14.274Z,9.98
2023-03-14T12:23:56.647Z,9.98
2023-03-14T12:26:27.719Z,9.96
2023-03-14T12:29:03.347Z,9.96
2023-03-14T12:31:30.181Z,9.98
2023-03-14T12:34:23.654Z,9.98
2023-03-14T12:37:11.499Z,9.91
2023-03-14T12:39:46.494Z,9.87
2023-03-14T12:42:44.012Z,9.76
2023-03-14T12:45:25.758Z,9.68
2023-03-14T12:47:58.228Z,9.59
2023-03-14T12:50:32.861Z,9.56
2023-03-14T12:53:05.329Z,9.57
2023-03-14T12:55:43.617Z,9.60
2023-03-14T12:58:45.508Z,9.63
2023-03-14T13:01:20.160Z,9.64
2023-03-14T13:03:58.396Z,9.64
2023-03-14T13:06:49.821Z,9.67
2023-03-14T13:09:34.731Z,9.68
2023-03-14T13:12:10.728Z,9.66
2023-03-14T13:14:41.794Z,9.64
2023-03-14T13:17:35.784Z,9.57
2023-03-14T13:20:13.325Z,9.52
2023-03-14T13:22:39.767Z,9.46
2023-03-14T13:25:08.828Z,9.44
2023-03-14T13:27:35.976Z,9.48
2023-03-14T13:30:12.772Z,9.50
2023-03-14T13:32:42.843Z,9.52
2023-03-14T13:35:27.877Z,9.55
2023-03-14T13:38:10.258Z,9.54
2023-03-14T13:40:37.361Z,9.51
2023-03-14T13:43:26.265Z,9.43
2023-03-14T13:46:05.276Z,9.39
2023-03-14T13:48:34.197Z,9.24
2023-03-14T13:51:04.758Z,9.08
2023-03-14T13:53:31.460Z,8.93
2023-03-14T13:55:58.059Z,8.82
2023-03-14T13:58:28.137Z,8.81
2023-03-14T14:01:06.834Z,8.80
2023-03-14T14:03:35.744Z,8.80
2023-03-14T14:06:02.234Z,8.80
2023-03-14T14:08:28.657Z,8.77
2023-03-14T14:10:59.955Z,8.75
2023-03-14T14:13:28.283Z,8.74
2023-03-14T14:15:55.778Z,8.72
2023-03-14T14:18:26.632Z,8.74
2023-03-14T14:20:53.648Z,8.79
2023-03-14T14:23:26.015Z,8.84
2023-03-14T14:25:53.862Z,8.87
2023-03-14T14:28:30.286Z,8.86
2023-03-14T14:31:23.774Z,8.95
2023-03-14T14:34:00.016Z,8.97
2023-03-14T14:36:33.666Z,8.98
2023-03-14T14:39:09.319Z,9.07
2023-03-14T14:41:37.069Z,9.20
2023-03-14T14:44:04.914Z,9.25
2023-03-14T14:46:33.731Z,9.19
2023-03-14T14:49:05.180Z,9.14
2023-03-14T14:51:35.402Z,9.15
2023-03-14T14:54:11.359Z,9.08
2023-03-14T14:56:38.382Z,9.03
2023-03-14T14:59:07.632Z,8.94
2023-03-14T15:01:35.524Z,8.81
2023-03-14T15:04:02.850Z,8.68
2023-03-14T15:06:30.498Z,8.61
2023-03-14T15:08:56.988Z,8.52
2023-03-14T15:11:25.856Z,8.46
2023-03-14T15:13:53.159Z,8.42
2023-03-14T15:16:22.000Z,8.42
2023-03-14T15:18:53.740Z,8.41
2023-03-14T15:21:20.184Z,8.37
2023-03-14T15:23:46.618Z,8.41
2023-03-14T15:26:16.611Z,8.40
2023-03-14T15:28:43.134Z,8.43
2023-03-14T15:31:10.857Z,8.46
2023-03-14T15:33:37.671Z,8.48
2023-03-14T15:36:05.791Z,8.46
2023-03-14T15:38:32.285Z,8.50
2023-03-14T15:40:58.731Z,8.50
2023-03-14T15:43:25.141Z,8.53
2023-03-14T15:45:51.879Z,8.56
2023-03-14T15:48:20.113Z,8.61
2023-03-14T15:50:46.644Z,8.71
2023-03-14T15:53:13.490Z,8.82
2023-03-14T15:55:40.214Z,8.97
2023-03-14T15:58:07.446Z,9.18
2023-03-14T16:00:35.583Z,9.34
2023-03-14T16:03:02.007Z,9.44
2023-03-14T16:05:28.449Z,9.49
2023-03-14T16:07:54.891Z,9.50
2023-03-14T16:10:21.332Z,9.48
2023-03-14T16:12:47.766Z,9.51
2023-03-14T16:15:14.226Z,9.57
2023-03-14T16:17:43.490Z,9.56
2023-03-14T16:20:10.283Z,9.62
2023-03-14T16:22:36.879Z,9.61
2023-03-14T16:25:05.021Z,9.54
2023-03-14T16:27:31.647Z,9.42
2023-03-14T16:30:00.328Z,9.23
2023-03-14T16:32:27.612Z,9.06
2023-03-14T16:34:54.216Z,8.87
2023-03-14T16:37:21.655Z,8.77
2023-03-14T16:40:13.176Z,8.67
2023-03-14T16:42:36.113Z,8.56
2023-03-14T16:45:02.552Z,8.48
2023-03-14T16:47:31.099Z,8.36
2023-03-14T16:49:57.521Z,8.31
2023-03-14T16:52:25.220Z,8.25
2023-03-14T16:54:51.609Z,8.17
2023-03-14T16:57:18.046Z,8.12
2023-03-14T16:59:44.612Z,8.11
2023-03-14T17:02:11.150Z,8.09
2023-03-14T17:04:40.257Z,8.07
2023-03-14T17:07:06.789Z,8.02
2023-03-14T17:09:33.210Z,8.02
2023-03-14T17:11:59.625Z,8.06
2023-03-14T17:14:26.402Z,7.99
2023-03-14T17:16:52.932Z,7.95
2023-03-14T17:19:20.069Z,7.96
2023-03-14T17:21:46.471Z,7.87
2023-03-14T17:24:12.909Z,7.80
2023-03-14T17:26:39.313Z,7.74
2023-03-14T17:29:05.732Z,7.67
2023-03-14T17:31:32.237Z,7.62
2023-03-14T17:33:58.753Z,7.57
2023-03-14T17:36:28.872Z,7.42
2023-03-14T17:38:57.480Z,7.20
2023-03-14T17:41:24.463Z,6.99
2023-03-14T17:43:50.883Z,6.83
2023-03-14T17:46:17.558Z,6.68
2023-03-14T17:48:45.614Z,6.64
2023-03-14T17:51:12.931Z,6.59
2023-03-14T17:53:39.610Z,6.52
2023-03-14T17:56:06.775Z,6.49
2023-03-14T17:58:36.549Z,6.46
2023-03-14T18:01:13.687Z,6.49
2023-03-14T18:03:41.742Z,6.39
2023-03-14T18:06:09.843Z,6.38
2023-03-14T18:08:43.795Z,6.31
2023-03-14T18:11:11.756Z,6.31
2023-03-14T18:13:39.630Z,6.34
2023-03-14T18:16:07.582Z,6.33
2023-03-14T18:18:34.041Z,6.33
2023-03-14T18:21:00.539Z,6.32
2023-03-14T18:23:26.950Z,6.29
2023-03-14T18:25:53.441Z,6.27
2023-03-14T18:28:21.156Z,6.27
2023-03-14T18:30:52.115Z,6.28
2023-03-14T18:33:22.176Z,6.28
2023-03-14T18:35:51.459Z,6.16
2023-03-14T18:38:18.460Z,6.08
2023-03-14T18:40:45.025Z,5.95
2023-03-14T18:43:11.452Z,5.83
2023-03-14T18:45:37.924Z,5.77
2023-03-14T18:48:04.581Z,5.67
2023-03-14T18:50:31.596Z,5.60
2023-03-14T18:52:58.020Z,5.39
2023-03-14T18:55:24.485Z,5.24
2023-03-14T18:57:50.886Z,5.17
2023-03-14T19:00:18.861Z,5.04
2023-03-14T19:02:45.547Z,4.96
2023-03-14T19:05:13.255Z,4.94
2023-03-14T19:07:40.624Z,4.97
2023-03-14T19:10:07.344Z,4.99
2023-03-14T19:12:34.545Z,5.01
2023-03-14T19:15:01.034Z,5.03
2023-03-14T19:17:27.699Z,5.05
2023-03-14T19:19:54.202Z,4.99
2023-03-14T19:22:20.998Z,5.01
2023-03-14T19:24:47.409Z,4.95
2023-03-14T19:27:14.074Z,5.00
2023-03-14T19:29:42.213Z,4.99
2023-03-14T19:32:10.036Z,4.96
2023-03-14T19:34:36.573Z,4.91
2023-03-14T19:37:03.105Z,4.93
2023-03-14T19:39:29.507Z,4.89
2023-03-14T19:41:59.383Z,4.89
2023-03-14T19:44:26.305Z,4.69
2023-03-14T19:46:53.198Z,4.48
2023-03-14T19:49:21.627Z,4.45
2023-03-14T19:51:49.180Z,4.46
2023-03-14T19:54:15.735Z,4.37
2023-03-14T19:56:42.303Z,4.29
2023-03-14T19:59:08.717Z,4.26
2023-03-14T20:01:35.342Z,4.30
2023-03-14T20:04:04.762Z,4.26
2023-03-14T20:06:31.310Z,4.33
2023-03-14T20:08:59.038Z,4.35
2023-03-14T20:11:25.509Z,4.24
2023-03-14T20:13:51.905Z,4.21
2023-03-14T20:16:18.357Z,4.22
2023-03-14T20:18:44.902Z,4.11
2023-03-14T20:21:15.327Z,4.11
2023-03-14T20:23:44.045Z,4.03
2023-03-14T20:26:10.907Z,3.96
2023-03-14T20:28:37.345Z,3.89
2023-03-14T20:31:07.368Z,3.81
2023-03-14T20:33:34.440Z,3.72
2023-03-14T20:36:01.017Z,3.73
2023-03-14T20:38:28.098Z,3.77
2023-03-14T20:41:01.249Z,3.77
2023-03-14T20:43:29.260Z,3.72
2023-03-14T20:45:57.522Z,3.78
2023-03-14T20:48:25.177Z,3.73
2023-03-14T20:50:51.836Z,3.75
2023-03-14T20:53:19.580Z,3.81
2023-03-14T20:55:46.494Z,3.86
2023-03-14T20:58:13.250Z,3.89
2023-03-14T21:00:50.502Z,3.92
2023-03-14T21:03:17.830Z,3.95
2023-03-14T21:05:46.566Z,3.98
2023-03-14T21:08:18.374Z,3.91
2023-03-14T21:10:52.011Z,3.91
2023-03-14T21:13:18.644Z,3.88
2023-03-14T21:15:45.417Z,3.86
2023-03-14T21:18:12.038Z,3.91
2023-03-14T21:20:40.417Z,3.90
2023-03-14T21:23:07.140Z,3.86
2023-03-14T21:25:34.632Z,3.82
2023-03-14T21:28:04.527Z,3.90
2023-03-14T21:30:32.274Z,3.91
2023-03-14T21:32:58.791Z,3.93
2023-03-14T21:35:25.412Z,3.92
2023-03-14T21:37:51.925Z,3.93
2023-03-14T21:40:18.533Z,3.90
2023-03-14T21:42:45.003Z,3.81
2023-03-14T21:45:12.539Z,3.84
2023-03-14T21:47:39.091Z,3.79
2023-03-14T21:50:05.999Z,3.76
2023-03-14T21:52:33.625Z,3.76
2023-03-14T21:55:00.114Z,3.75
2023-03-14T21:57:29.631Z,3.72
2023-03-14T21:59:56.161Z,3.74
2023-03-14T22:02:22.647Z,3.71
2023-03-14T22:04:49.091Z,3.76
2023-03-14T22:07:18.883Z,3.79
2023-03-14T22:09:46.241Z,3.84
2023-03-14T22:12:17.505Z,3.89
2023-03-14T22:14:44.835Z,3.89
2023-03-14T22:17:11.437Z,3.89
2023-03-14T22:19:37.864Z,3.86
2023-03-14T22:22:04.643Z,3.82
2023-03-14T22:24:31.181Z,3.82
2023-03-14T22:26:57.608Z,3.89
2023-03-14T22:29:24.332Z,3.92
2023-03-14T22:31:51.062Z,3.93
2023-03-14T22:34:18.615Z,3.98
2023-03-14T22:36:45.059Z,3.91
2023-03-14T22:39:11.475Z,3.94
2023-03-14T22:41:38.109Z,3.92
2023-03-14T22:44:04.545Z,3.96
2023-03-14T22:46:30.957Z,3.94
2023-03-14T22:48:57.354Z,3.99
2023-03-14T22:51:23.824Z,4.00
2023-03-14T22:53:50.284Z,3.99
2023-03-14T22:56:16.716Z,4.01
2023-03-14T22:58:44.342Z,4.00
2023-03-14T23:01:10.843Z,4.00
2023-03-14T23:03:37.421Z,3.97
2023-03-14T23:06:05.917Z,3.84
2023-03-14T23:08:33.133Z,3.84
2023-03-14T23:11:01.607Z,3.87
2023-03-14T23:13:28.634Z,3.93
2023-03-14T23:15:55.043Z,3.95
2023-03-14T23:18:21.504Z,4.01
2023-03-14T23:20:48.393Z,3.97
2023-03-14T23:23:16.422Z,3.96
2023-03-14T23:25:53.034Z,3.88
2023-03-14T23:28:22.907Z,3.86
2023-03-14T23:30:56.133Z,3.83
2023-03-14T23:33:26.098Z,3.84
2023-03-14T23:35:54.377Z,3.86
2023-03-14T23:38:21.898Z,3.84
2023-03-14T23:40:48.436Z,3.81
2023-03-14T23:43:14.981Z,3.79
2023-03-14T23:45:41.434Z,3.80
2023-03-14T23:48:08.030Z,3.76
2023-03-14T23:50:37.512Z,3.74
2023-03-14T23:53:03.956Z,3.71
2023-03-14T23:55:30.468Z,3.66
2023-03-14T23:57:57.057Z,3.64
